createdAt,value
2022-11-05T00:00:33.725Z,11.90
2022-11-05T00:03:29.749Z,8.38
2022-11-05T00:06:16.536Z,12.70
2022-11-05T00:09:02.750Z,6.65
2022-11-05T00:11:49.271Z,6.88
2022-11-05T00:14:35.567Z,4.88
2022-11-05T00:17:03.418Z,4.40
2022-11-05T00:19:30.957Z,5.72
2022-11-05T00:22:17.361Z,5.38
2022-11-05T00:25:03.626Z,3.92
2022-11-05T00:27:34.068Z,9.35
2022-11-05T00:30:04.858Z,4.22
2022-11-05T00:32:32.870Z,4.90
2022-11-05T00:35:00.558Z,4.85
2022-11-05T00:37:28.943Z,4.28
2022-11-05T00:39:57.765Z,4.10
2022-11-05T00:42:44.264Z,4.85
2022-11-05T00:45:11.916Z,4.57
2022-11-05T00:47:58.986Z,7.43
2022-11-05T00:50:26.960Z,5.40
2022-11-05T00:52:56.016Z,5.28
2022-11-05T00:55:30.102Z,4.10
2022-11-05T00:57:58.540Z,4.35
2022-11-05T01:00:27.038Z,5.40
2022-11-05T01:02:57.671Z,4.35
2022-11-05T01:05:25.385Z,4.78
2022-11-05T01:07:53.747Z,4.82
2022-11-05T01:10:21.962Z,5.05
2022-11-05T01:12:49.973Z,4.47
2022-11-05T01:15:18.023Z,4.68
2022-11-05T01:17:45.935Z,6.07
2022-11-05T01:20:13.622Z,4.93
2022-11-05T01:22:41.485Z,6.18
2022-11-05T01:25:09.479Z,5.28
2022-11-05T01:27:37.760Z,5.60
2022-11-05T01:30:06.316Z,4.90
2022-11-05T01:32:35.235Z,6.57
2022-11-05T01:35:03.242Z,5.88
2022-11-05T01:37:31.038Z,4.45
2022-11-05T01:39:58.747Z,5.95
2022-11-05T01:42:46.367Z,5.40
2022-11-05T01:45:15.834Z,5.15
2022-11-05T01:47:47.274Z,5.78
2022-11-05T01:50:33.928Z,5.53
2022-11-05T01:53:06.377Z,5.30
2022-11-05T01:55:36.327Z,5.60
2022-11-05T01:58:05.825Z,7.80
2022-11-05T02:00:33.937Z,6.03
2022-11-05T02:03:02.366Z,7.20
2022-11-05T02:05:30.334Z,6.25
2022-11-05T02:07:58.401Z,7.63
2022-11-05T02:10:26.399Z,8.45
2022-11-05T02:12:54.509Z,8.43
2022-11-05T02:15:48.310Z,6.05
2022-11-05T02:18:21.632Z,9.23
2022-11-05T02:21:15.021Z,7.38
2022-11-05T02:23:55.020Z,5.40
2022-11-05T02:26:37.687Z,4.63
2022-11-05T02:29:14.812Z,4.80
2022-11-05T02:31:48.368Z,5.13
2022-11-05T02:34:30.201Z,4.80
2022-11-05T02:37:00.609Z,5.15
2022-11-05T02:39:47.230Z,5.00
2022-11-05T02:42:27.074Z,5.07
2022-11-05T02:45:04.082Z,5.10
2022-11-05T02:47:42.445Z,6.07
2022-11-05T02:50:33.407Z,3.22
2022-11-05T02:53:04.081Z,3.55
2022-11-05T02:55:37.880Z,3.67
2022-11-05T02:58:05.936Z,4.32
2022-11-05T03:00:40.809Z,3.00
2022-11-05T03:03:11.347Z,4.25
2022-11-05T03:05:44.105Z,3.67
2022-11-05T03:08:16.302Z,4.30
2022-11-05T03:10:48.047Z,3.03
2022-11-05T03:13:23.430Z,3.55
2022-11-05T03:15:57.082Z,3.40
2022-11-05T03:18:29.569Z,3.67
2022-11-05T03:21:05.740Z,5.22
2022-11-05T03:23:46.261Z,3.65
2022-11-05T03:26:34.302Z,4.93
2022-11-05T03:29:03.505Z,3.67
2022-11-05T03:31:31.678Z,3.42
2022-11-05T03:34:00.191Z,2.75
2022-11-05T03:36:31.482Z,3.45
2022-11-05T03:39:00.085Z,4.15
2022-11-05T03:41:28.766Z,3.47
2022-11-05T03:43:58.126Z,3.10
2022-11-05T03:46:28.503Z,2.95
2022-11-05T03:48:57.436Z,3.65
2022-11-05T03:51:33.497Z,4.82
2022-11-05T03:54:02.344Z,3.78
2022-11-05T03:56:45.293Z,3.42
2022-11-05T03:59:13.245Z,3.15
2022-11-05T04:01:42.685Z,3.20
2022-11-05T04:04:10.799Z,3.15
2022-11-05T04:06:57.478Z,4.20
2022-11-05T04:09:43.993Z,3.45
2022-11-05T04:12:30.557Z,3.20
2022-11-05T04:14:58.173Z,3.83
2022-11-05T04:17:26.086Z,4.55
2022-11-05T04:20:12.195Z,4.18
2022-11-05T04:22:58.743Z,4.95
2022-11-05T04:25:26.415Z,4.65
2022-11-05T04:27:58.952Z,5.35
2022-11-05T04:30:26.611Z,6.30
2022-11-05T04:33:02.118Z,4.20
2022-11-05T04:35:31.140Z,4.63
2022-11-05T04:37:59.429Z,6.65
2022-11-05T04:40:27.111Z,6.25
2022-11-05T04:42:55.723Z,6.63
2022-11-05T04:45:27.609Z,6.07
2022-11-05T04:47:55.554Z,6.55
2022-11-05T04:50:23.380Z,7.47
2022-11-05T04:52:51.454Z,7.25
2022-11-05T04:55:19.450Z,18.83
2022-11-05T04:57:51.720Z,9.32
2022-11-05T05:02:47.236Z,11.40
2022-11-05T05:05:15.127Z,24.02
2022-11-05T05:07:43.005Z,73.93
2022-11-05T05:10:10.943Z,31.77
2022-11-05T05:12:58.013Z,77.20
2022-11-05T05:15:25.865Z,19.98
2022-11-05T05:17:53.711Z,15.15
2022-11-05T05:20:40.093Z,11.85
2022-11-05T05:23:08.209Z,41.78
2022-11-05T05:25:35.905Z,67.53
2022-11-05T05:28:03.904Z,11.38
2022-11-05T05:30:31.531Z,12.63
2022-11-05T05:33:01.997Z,17.52
2022-11-05T05:35:29.642Z,13.50
2022-11-05T05:37:57.861Z,21.50
2022-11-05T05:40:25.477Z,17.52
2022-11-05T05:42:56.485Z,48.10
2022-11-05T05:45:24.083Z,26.52
2022-11-05T05:47:51.863Z,10.88
2022-11-05T05:50:19.417Z,10.65
2022-11-05T05:52:53.202Z,9.32
2022-11-05T05:55:20.825Z,13.15
2022-11-05T05:57:48.743Z,14.75
2022-11-05T06:00:16.512Z,15.18
2022-11-05T06:02:44.462Z,12.95
2022-11-05T06:05:13.582Z,10.82
2022-11-05T06:07:42.369Z,9.20
2022-11-05T06:10:10.014Z,8.88
2022-11-05T06:12:39.328Z,9.25
2022-11-05T06:15:06.975Z,9.15
2022-11-05T06:17:34.843Z,8.23
2022-11-05T06:20:02.489Z,8.45
2022-11-05T06:22:30.543Z,7.38
2022-11-05T06:24:58.068Z,9.27
2022-11-05T06:27:26.015Z,8.80
2022-11-05T06:29:53.536Z,8.73
2022-11-05T06:32:21.426Z,10.63
2022-11-05T06:34:48.945Z,11.20
2022-11-05T06:37:16.874Z,10.80
2022-11-05T06:39:44.542Z,15.75
2022-11-05T06:42:18.291Z,12.57
2022-11-05T06:44:46.755Z,105.88
2022-11-05T06:47:14.688Z,66.28
2022-11-05T06:49:42.202Z,48.13
2022-11-05T06:52:10.177Z,22.20
2022-11-05T06:54:37.711Z,17.90
2022-11-05T06:57:06.318Z,19.42
2022-11-05T06:59:34.439Z,36.55
2022-11-05T07:02:02.367Z,12.88
2022-11-05T07:04:30.020Z,22.33
2022-11-05T07:06:59.810Z,12.63
2022-11-05T07:09:28.065Z,10.00
2022-11-05T07:11:56.205Z,11.98
2022-11-05T07:14:23.812Z,16.33
2022-11-05T07:16:51.731Z,12.13
2022-11-05T07:19:19.283Z,11.38
2022-11-05T07:21:48.715Z,10.82
2022-11-05T07:24:16.364Z,10.50
2022-11-05T07:26:44.466Z,14.45
2022-11-05T07:29:12.109Z,12.40
2022-11-05T07:31:39.926Z,10.63
2022-11-05T07:34:07.457Z,13.88
2022-11-05T07:36:35.842Z,13.02
2022-11-05T07:39:03.368Z,11.63
2022-11-05T07:41:31.500Z,8.68
2022-11-05T07:43:59.055Z,8.63
2022-11-05T07:46:26.993Z,28.23
2022-11-05T07:48:54.535Z,19.10
2022-11-05T07:51:22.940Z,10.52
2022-11-05T07:53:50.639Z,10.68
2022-11-05T07:56:18.574Z,8.50
2022-11-05T07:58:46.345Z,12.07
2022-11-05T08:01:14.544Z,13.50
2022-11-05T08:03:42.315Z,11.32
2022-11-05T08:06:10.492Z,11.75
2022-11-05T08:08:38.129Z,10.40
2022-11-05T08:11:06.879Z,12.38
2022-11-05T08:13:34.974Z,14.75
2022-11-05T08:16:03.257Z,15.98
2022-11-05T08:18:31.708Z,15.60
2022-11-05T08:21:00.410Z,52.78
2022-11-05T08:23:28.506Z,14.95
2022-11-05T08:25:57.010Z,21.05
2022-11-05T08:28:25.917Z,20.85
2022-11-05T08:30:54.915Z,20.60
2022-11-05T08:33:22.963Z,17.80
2022-11-05T08:35:50.950Z,22.35
2022-11-05T08:38:19.211Z,23.27
2022-11-05T08:40:53.879Z,34.17
2022-11-05T08:43:21.578Z,16.25
2022-11-05T08:45:49.689Z,16.45
2022-11-05T08:48:18.641Z,19.42
2022-11-05T08:50:47.395Z,19.08
2022-11-05T08:53:15.937Z,21.48
2022-11-05T08:55:44.266Z,29.73
2022-11-05T08:58:13.049Z,21.30
2022-11-05T09:00:41.111Z,22.63
2022-11-05T09:03:09.987Z,25.20
2022-11-05T09:05:39.690Z,22.70
2022-11-05T09:08:14.505Z,23.90
2022-11-05T09:10:43.095Z,26.05
2022-11-05T09:13:17.882Z,30.85
2022-11-05T09:15:46.780Z,25.27
2022-11-05T09:18:14.801Z,21.25
2022-11-05T09:20:43.354Z,33.13
2022-11-05T09:23:12.109Z,26.98
2022-11-05T09:25:40.170Z,30.40
2022-11-05T09:28:08.871Z,27.17
2022-11-05T09:30:39.994Z,24.05
2022-11-05T09:33:07.968Z,26.70
2022-11-05T09:35:38.245Z,32.83
2022-11-05T09:38:05.879Z,30.70
2022-11-05T09:40:37.550Z,33.13
2022-11-05T09:43:05.774Z,29.10
2022-11-05T09:45:34.511Z,29.27
2022-11-05T09:48:08.725Z,24.75
2022-11-05T09:50:41.043Z,21.95
2022-11-05T09:53:11.311Z,26.60
2022-11-05T09:55:43.910Z,24.75
2022-11-05T09:58:34.795Z,21.13
2022-11-05T10:01:04.020Z,30.83
2022-11-05T10:03:31.958Z,29.05
2022-11-05T10:06:04.283Z,21.85
2022-11-05T10:08:33.511Z,21.17
2022-11-05T10:11:05.866Z,18.58
2022-11-05T10:13:40.917Z,27.13
2022-11-05T10:16:16.263Z,31.52
2022-11-05T10:18:45.601Z,26.40
2022-11-05T10:21:17.166Z,23.63
2022-11-05T10:23:45.936Z,24.50
2022-11-05T10:26:20.078Z,21.65
2022-11-05T10:28:48.197Z,24.88
2022-11-05T10:31:18.156Z,23.70
2022-11-05T10:33:49.631Z,26.92
2022-11-05T10:36:20.302Z,24.23
2022-11-05T10:38:47.802Z,26.02
2022-11-05T10:41:34.457Z,26.67
2022-11-05T10:44:13.496Z,27.52
2022-11-05T10:46:54.399Z,32.08
2022-11-05T10:49:40.418Z,28.15
2022-11-05T10:52:17.565Z,30.70
2022-11-05T10:54:45.856Z,31.80
2022-11-05T10:57:28.694Z,34.95
2022-11-05T11:00:16.532Z,29.75
2022-11-05T11:02:46.522Z,30.55
2022-11-05T11:05:40.601Z,26.33
2022-11-05T11:08:11.215Z,29.35
2022-11-05T11:10:42.111Z,28.42
2022-11-05T11:13:20.376Z,26.55
2022-11-05T11:15:50.793Z,25.92
2022-11-05T11:18:25.672Z,30.40
2022-11-05T11:20:54.539Z,38.80
2022-11-05T11:23:22.384Z,25.98
2022-11-05T11:25:53.197Z,33.90
2022-11-05T11:28:26.418Z,107.93
2022-11-05T11:30:57.831Z,25.48
2022-11-05T11:33:27.664Z,85.40
2022-11-05T11:35:55.577Z,52.75
2022-11-05T11:38:24.450Z,50.42
2022-11-05T11:40:52.344Z,35.72
2022-11-05T11:43:30.930Z,32.47
2022-11-05T11:46:04.842Z,31.65
2022-11-05T11:48:35.894Z,47.38
2022-11-05T11:51:23.771Z,30.88
2022-11-05T11:53:56.821Z,24.38
2022-11-05T11:56:24.462Z,34.50
2022-11-05T11:58:53.478Z,32.38
2022-11-05T12:01:39.882Z,31.73
2022-11-05T12:04:31.773Z,28.92
2022-11-05T12:07:05.798Z,35.90
2022-11-05T12:09:52.874Z,44.00
2022-11-05T12:12:29.493Z,36.42
2022-11-05T12:15:00.734Z,30.27
2022-11-05T12:17:47.193Z,41.17
2022-11-05T12:20:20.674Z,88.45
2022-11-05T12:23:06.512Z,60.00
2022-11-05T12:25:35.235Z,58.40
2022-11-05T12:28:10.805Z,52.83
2022-11-05T12:30:56.120Z,52.35
2022-11-05T12:33:23.731Z,68.30
2022-11-05T12:35:57.398Z,56.58
2022-11-05T12:38:37.863Z,46.20
2022-11-05T12:41:17.549Z,51.70
2022-11-05T12:43:53.057Z,32.80
2022-11-05T12:46:24.026Z,42.67
2022-11-05T12:49:14.727Z,40.75
2022-11-05T12:51:55.886Z,38.25
2022-11-05T12:54:26.950Z,38.65
2022-11-05T12:56:57.262Z,33.08
2022-11-05T12:59:24.765Z,30.25
2022-11-05T13:02:03.573Z,31.77
2022-11-05T13:04:35.154Z,29.08
2022-11-05T13:07:04.886Z,32.60
2022-11-05T13:09:43.289Z,38.55
2022-11-05T13:12:15.551Z,30.40
2022-11-05T13:14:43.414Z,37.20
2022-11-05T13:17:13.258Z,37.30
2022-11-05T13:19:41.091Z,36.40
2022-11-05T13:22:27.326Z,36.20
2022-11-05T13:25:00.110Z,46.58
2022-11-05T13:27:27.822Z,71.00
2022-11-05T13:30:06.055Z,49.30
2022-11-05T13:32:37.007Z,40.80
2022-11-05T13:35:07.171Z,45.10
2022-11-05T13:38:00.332Z,45.33
2022-11-05T13:40:39.355Z,38.22
2022-11-05T13:43:16.863Z,38.72
2022-11-05T13:46:05.947Z,34.92
2022-11-05T13:48:54.118Z,39.08
2022-11-05T13:51:37.794Z,35.42
2022-11-05T13:54:25.777Z,22.60
2022-11-05T13:57:19.485Z,21.73
2022-11-05T14:00:06.171Z,22.27
2022-11-05T14:03:06.529Z,27.30
2022-11-05T14:05:35.905Z,28.05
2022-11-05T14:08:10.960Z,28.35
2022-11-05T14:10:46.409Z,21.45
2022-11-05T14:13:17.060Z,23.63
2022-11-05T14:15:58.419Z,24.92
2022-11-05T14:18:35.422Z,25.90
2022-11-05T14:21:04.314Z,27.88
2022-11-05T14:23:32.184Z,37.90
2022-11-05T14:26:16.690Z,27.38
2022-11-05T14:28:46.335Z,25.10
2022-11-05T14:31:13.994Z,31.48
2022-11-05T14:33:54.505Z,27.30
2022-11-05T14:36:22.428Z,26.73
2022-11-05T14:38:51.303Z,43.13
2022-11-05T14:41:19.971Z,62.45
2022-11-05T14:43:50.207Z,184.77
2022-11-05T14:46:17.923Z,120.55
2022-11-05T14:48:52.047Z,125.03
2022-11-05T14:51:26.120Z,88.10
2022-11-05T14:54:12.534Z,98.93
2022-11-05T14:56:56.395Z,43.85
2022-11-05T14:59:24.705Z,63.55
2022-11-05T15:01:55.544Z,112.93
2022-11-05T15:04:30.789Z,183.30
2022-11-05T15:07:04.798Z,164.02
2022-11-05T15:09:41.242Z,118.43
2022-11-05T15:12:19.840Z,211.30
2022-11-05T15:14:47.354Z,192.00
2022-11-05T15:17:21.579Z,202.07
2022-11-05T15:19:49.796Z,199.10
2022-11-05T15:22:40.981Z,136.35
2022-11-05T15:25:16.798Z,190.43
2022-11-05T15:27:53.992Z,133.07
2022-11-05T15:30:22.875Z,104.40
2022-11-05T15:32:51.015Z,174.20
2022-11-05T15:35:27.160Z,84.80
2022-11-05T15:38:01.775Z,86.57
2022-11-05T15:40:33.048Z,65.32
2022-11-05T15:43:19.961Z,64.30
2022-11-05T15:46:00.994Z,122.72
2022-11-05T15:48:29.111Z,44.13
2022-11-05T15:50:56.968Z,153.10
2022-11-05T15:53:51.497Z,154.40
2022-11-05T15:56:23.067Z,78.68
2022-11-05T15:58:54.085Z,87.60
2022-11-05T16:13:47.091Z,32.22
2022-11-05T16:16:15.119Z,30.42
2022-11-05T16:18:45.591Z,33.75
2022-11-05T16:21:22.699Z,39.45
2022-11-05T16:23:50.355Z,35.47
2022-11-05T16:27:02.307Z,50.53
2022-11-05T16:29:32.699Z,50.53
2022-11-05T16:32:01.816Z,79.43
2022-11-05T16:34:34.182Z,102.45
2022-11-05T16:37:02.119Z,141.95
2022-11-05T16:39:29.767Z,143.05
2022-11-05T16:41:57.686Z,119.57
2022-11-05T16:44:25.612Z,61.03
2022-11-05T16:46:53.545Z,53.95
2022-11-05T16:49:21.290Z,49.10
2022-11-05T16:51:49.197Z,50.95
2022-11-05T16:54:16.790Z,75.25
2022-11-05T16:56:46.964Z,74.50
2022-11-05T16:59:15.251Z,62.35
2022-11-05T17:01:43.660Z,66.15
2022-11-05T17:04:14.653Z,45.97
2022-11-05T17:06:44.045Z,42.58
2022-11-05T17:09:11.661Z,37.78
2022-11-05T17:11:39.486Z,42.28
2022-11-05T17:14:13.150Z,36.58
2022-11-05T17:16:41.518Z,50.10
2022-11-05T17:19:14.571Z,88.18
2022-11-05T17:21:42.614Z,58.85
2022-11-05T17:24:10.334Z,64.55
2022-11-05T17:26:38.650Z,76.68
2022-11-05T17:29:06.227Z,66.32
2022-11-05T17:31:34.098Z,45.92
2022-11-05T17:34:01.655Z,74.82
2022-11-05T17:36:29.450Z,85.90
2022-11-05T17:38:57.103Z,95.07
2022-11-05T17:41:25.367Z,88.15
2022-11-05T17:43:56.995Z,184.50
2022-11-05T17:46:25.177Z,56.40
2022-11-05T17:48:52.795Z,37.45
2022-11-05T17:51:20.877Z,29.05
2022-11-05T17:53:49.392Z,29.52
2022-11-05T17:56:28.778Z,26.30
2022-11-05T17:58:56.862Z,34.35
2022-11-05T18:01:36.006Z,41.70
2022-11-05T18:04:09.067Z,41.42
2022-11-05T18:06:38.034Z,37.67
2022-11-05T18:09:06.888Z,37.90
2022-11-05T18:11:35.359Z,60.58
2022-11-05T18:14:03.850Z,37.80
2022-11-05T18:16:31.772Z,46.55
2022-11-05T18:18:59.536Z,37.38
2022-11-05T18:21:27.338Z,34.38
2022-11-05T18:23:55.196Z,30.67
2022-11-05T18:26:23.246Z,31.48
2022-11-05T18:28:50.869Z,32.10
2022-11-05T18:31:20.642Z,31.33
2022-11-05T18:33:49.225Z,29.38
2022-11-05T18:36:18.274Z,35.80
2022-11-05T18:38:46.066Z,31.27
2022-11-05T18:41:14.250Z,34.05
2022-11-05T18:43:42.167Z,31.45
2022-11-05T18:46:19.461Z,40.20
2022-11-05T18:48:58.402Z,37.78
2022-11-05T18:51:26.612Z,36.08
2022-11-05T18:53:55.124Z,39.45
2022-11-05T18:56:23.227Z,41.03
2022-11-05T18:59:03.320Z,40.22
2022-11-05T19:01:39.312Z,29.05
2022-11-05T19:04:07.182Z,35.08
2022-11-05T19:06:35.898Z,30.75
2022-11-05T19:09:03.827Z,35.33
2022-11-05T19:11:31.770Z,33.85
2022-11-05T19:13:59.898Z,37.42
2022-11-05T19:16:28.825Z,35.13
2022-11-05T19:18:58.937Z,40.50
2022-11-05T19:21:27.410Z,39.78
2022-11-05T19:23:56.510Z,34.17
2022-11-05T19:26:28.592Z,37.70
2022-11-05T19:29:00.895Z,37.10
2022-11-05T19:31:29.192Z,34.70
2022-11-05T19:33:57.164Z,34.35
2022-11-05T19:36:25.811Z,40.22
2022-11-05T19:38:58.026Z,35.70
2022-11-05T19:41:26.101Z,33.45
2022-11-05T19:43:55.026Z,46.05
2022-11-05T19:46:23.595Z,44.55
2022-11-05T19:48:51.599Z,38.58
2022-11-05T19:51:27.712Z,40.33
2022-11-05T19:53:55.846Z,38.40
2022-11-05T19:56:24.919Z,40.95
2022-11-05T19:58:53.276Z,36.47
2022-11-05T20:01:22.559Z,42.67
2022-11-05T20:03:51.849Z,39.30
2022-11-05T20:06:21.306Z,40.30
2022-11-05T20:11:37.825Z,34.75
2022-11-05T20:14:05.941Z,40.45
2022-11-05T20:16:39.085Z,38.33
2022-11-05T20:19:07.641Z,38.78
2022-11-05T20:21:35.832Z,38.80
2022-11-05T20:24:03.614Z,37.55
2022-11-05T20:26:31.775Z,36.72
2022-11-05T20:28:59.660Z,38.35
2022-11-05T20:31:27.666Z,42.17
2022-11-05T20:33:55.323Z,36.55
2022-11-05T20:36:24.515Z,40.00
2022-11-05T20:38:58.043Z,39.58
2022-11-05T20:41:26.673Z,38.38
2022-11-05T20:43:54.560Z,38.67
2022-11-05T20:46:23.092Z,36.92
2022-11-05T20:48:50.765Z,40.78
2022-11-05T20:51:19.699Z,34.95
2022-11-05T20:53:47.757Z,39.28
2022-11-05T20:56:20.089Z,43.50
2022-11-05T21:01:16.768Z,47.25
2022-11-05T21:03:45.367Z,40.75
2022-11-05T21:06:13.519Z,38.58
2022-11-05T21:08:41.339Z,38.08
2022-11-05T21:11:10.114Z,40.28
2022-11-05T21:13:38.035Z,40.00
2022-11-05T21:16:06.875Z,38.92
2022-11-05T21:18:35.056Z,42.60
2022-11-05T21:21:10.140Z,39.38
2022-11-05T21:23:37.757Z,41.78
2022-11-05T21:26:10.214Z,42.65
2022-11-05T21:28:38.576Z,38.28
2022-11-05T21:31:07.109Z,40.22
2022-11-05T21:33:34.718Z,38.13
2022-11-05T21:36:07.412Z,43.50
2022-11-05T21:38:35.045Z,39.50
2022-11-05T21:41:03.353Z,41.72
2022-11-05T21:43:31.050Z,43.45
2022-11-05T21:46:01.230Z,40.53
2022-11-05T21:48:28.884Z,47.13
2022-11-05T21:51:15.935Z,46.13
2022-11-05T21:54:02.294Z,40.30
2022-11-05T21:56:48.859Z,46.33
2022-11-05T21:59:36.493Z,49.15
2022-11-05T22:02:04.907Z,42.30
2022-11-05T22:04:33.794Z,37.85
2022-11-05T22:07:01.639Z,39.95
2022-11-05T22:09:29.675Z,37.22
2022-11-05T22:11:57.502Z,42.00
2022-11-05T22:14:25.178Z,42.78
2022-11-05T22:16:52.972Z,41.95
2022-11-05T22:19:20.776Z,39.75
2022-11-05T22:21:49.203Z,40.97
2022-11-05T22:24:17.282Z,43.92
2022-11-05T22:26:45.739Z,40.00
2022-11-05T22:29:13.733Z,45.50
2022-11-05T22:31:41.681Z,47.60
2022-11-05T22:34:10.658Z,39.33
2022-11-05T22:36:38.630Z,39.15
2022-11-05T22:39:06.280Z,42.53
2022-11-05T22:41:34.458Z,40.50
2022-11-05T22:44:03.869Z,41.55
2022-11-05T22:46:31.813Z,45.42
2022-11-05T22:49:00.162Z,45.28
2022-11-05T22:51:29.740Z,41.78
2022-11-05T22:53:58.025Z,39.35
2022-11-05T22:56:28.282Z,37.03
2022-11-05T22:58:56.087Z,36.88
2022-11-05T23:01:24.503Z,39.03
2022-11-05T23:03:53.276Z,43.58
2022-11-05T23:06:44.175Z,36.80
2022-11-05T23:09:36.179Z,39.97
2022-11-05T23:12:05.342Z,39.63
2022-11-05T23:14:33.082Z,43.95
2022-11-05T23:17:19.846Z,47.42
2022-11-05T23:20:26.088Z,42.13
2022-11-05T23:23:12.571Z,51.53
2022-11-05T23:25:40.202Z,41.10
2022-11-05T23:28:09.987Z,42.88
2022-11-05T23:31:01.778Z,40.08
2022-11-05T23:33:30.145Z,44.53
2022-11-05T23:36:16.169Z,41.08
2022-11-05T23:38:44.064Z,35.53
2022-11-05T23:41:30.136Z,40.53
2022-11-05T23:44:16.496Z,37.95
2022-11-05T23:47:02.807Z,39.97
2022-11-05T23:49:30.743Z,37.58
2022-11-05T23:51:58.288Z,38.83
2022-11-05T23:54:26.318Z,38.65
2022-11-05T23:56:53.809Z,36.92
2022-11-05T23:59:21.710Z,32.15
